createdAt,value
2018-04-22T00:00:59.463Z,72.89
2018-04-22T00:01:59.372Z,73.18
2018-04-22T00:02:59.268Z,73.18
2018-04-22T00:03:59.215Z,72.80
2018-04-22T00:04:59.073Z,73.03
2018-04-22T00:05:58.970Z,72.61
2018-04-22T00:06:58.881Z,73.28
2018-04-22T00:07:58.785Z,73.03
2018-04-22T00:08:58.685Z,73.18
2018-04-22T00:09:58.582Z,72.99
2018-04-22T00:10:58.478Z,73.56
2018-04-22T00:11:58.389Z,73.75
2018-04-22T00:12:58.285Z,73.47
2018-04-22T00:13:58.193Z,74.04
2018-04-22T00:14:58.097Z,73.85
2018-04-22T00:15:57.990Z,73.94
2018-04-22T00:16:57.897Z,74.13
2018-04-22T00:17:57.794Z,74.13
2018-04-22T00:18:57.702Z,74.42
2018-04-22T00:19:57.598Z,74.29
2018-04-22T00:20:57.497Z,74.96
2018-04-22T00:21:57.405Z,74.96
2018-04-22T00:22:57.302Z,74.10
2018-04-22T00:23:57.211Z,74.67
2018-04-22T00:24:57.108Z,74.10
2018-04-22T00:25:57.017Z,74.77
2018-04-22T00:26:56.915Z,74.86
2018-04-22T00:27:56.823Z,74.96
2018-04-22T00:28:56.719Z,74.38
2018-04-22T00:29:56.616Z,74.29
2018-04-22T00:30:56.525Z,75.05
2018-04-22T00:31:56.426Z,74.86
2018-04-22T00:32:56.330Z,73.91
2018-04-22T00:33:56.228Z,74.86
2018-04-22T00:34:56.124Z,73.72
2018-04-22T00:35:56.035Z,74.19
2018-04-22T00:36:55.931Z,73.85
2018-04-22T00:37:55.839Z,74.38
2018-04-22T00:38:55.736Z,73.91
2018-04-22T00:39:55.633Z,74.23
2018-04-22T00:40:55.542Z,73.66
2018-04-22T00:41:55.439Z,73.66
2018-04-22T00:42:55.348Z,74.01
2018-04-22T00:43:55.244Z,74.19
2018-04-22T00:44:55.141Z,74.01
2018-04-22T00:45:55.052Z,73.81
2018-04-22T00:46:55.250Z,74.67
2018-04-22T00:47:54.858Z,74.38
2018-04-22T00:48:54.766Z,74.19
2018-04-22T00:49:54.653Z,75.34
2018-04-22T00:50:54.561Z,75.05
2018-04-22T00:51:54.458Z,74.48
2018-04-22T00:52:54.365Z,74.10
2018-04-22T00:53:54.263Z,74.57
2018-04-22T00:54:54.160Z,74.96
2018-04-22T00:55:54.069Z,74.86
2018-04-22T00:56:53.967Z,74.77
2018-04-22T00:57:53.874Z,75.81
2018-04-22T00:58:53.772Z,75.68
2018-04-22T00:59:53.668Z,74.63
2018-04-22T01:00:53.578Z,76.06
2018-04-22T01:01:53.482Z,75.49
2018-04-22T01:02:53.382Z,75.40
2018-04-22T01:03:53.280Z,75.68
2018-04-22T01:04:53.177Z,75.53
2018-04-22T01:05:53.086Z,76.25
2018-04-22T01:06:52.983Z,76.25
2018-04-22T01:07:52.890Z,75.87
2018-04-22T01:08:52.790Z,75.96
2018-04-22T01:09:52.684Z,76.06
2018-04-22T01:10:52.595Z,76.25
2018-04-22T01:11:52.742Z,77.20
2018-04-22T01:12:52.388Z,77.11
2018-04-22T01:13:52.297Z,76.12
2018-04-22T01:14:52.193Z,76.88
2018-04-22T01:15:52.104Z,76.12
2018-04-22T01:16:52.000Z,76.98
2018-04-22T01:17:51.902Z,77.17
2018-04-22T01:18:51.806Z,77.17
2018-04-22T01:19:51.714Z,76.69
2018-04-22T01:20:51.600Z,76.88
2018-04-22T01:21:51.758Z,77.07
2018-04-22T01:22:51.406Z,77.26
2018-04-22T01:23:51.315Z,77.64
2018-04-22T01:24:51.212Z,77.45
2018-04-22T01:25:51.109Z,76.79
2018-04-22T01:26:51.020Z,77.36
2018-04-22T01:27:50.917Z,78.03
2018-04-22T01:28:50.813Z,78.03
2018-04-22T01:29:50.725Z,78.31
2018-04-22T01:30:50.619Z,77.80
2018-04-22T01:31:50.766Z,78.46
2018-04-22T01:32:50.426Z,78.65
2018-04-22T01:33:50.327Z,78.56
2018-04-22T01:34:50.232Z,78.08
2018-04-22T01:35:50.128Z,77.98
2018-04-22T01:36:50.025Z,78.65
2018-04-22T01:37:49.939Z,78.37
2018-04-22T01:38:49.832Z,78.37
2018-04-22T01:39:49.729Z,78.65
2018-04-22T01:40:49.639Z,77.80
2018-04-22T01:41:49.546Z,78.85
2018-04-22T01:42:49.432Z,78.65
2018-04-22T01:43:49.340Z,78.27
2018-04-22T01:44:49.238Z,79.51
2018-04-22T01:45:49.136Z,78.65
2018-04-22T01:46:49.043Z,78.46
2018-04-22T01:47:48.939Z,78.75
2018-04-22T01:48:48.836Z,78.75
2018-04-22T01:49:48.749Z,78.65
2018-04-22T01:50:48.643Z,78.65
2018-04-22T01:51:48.852Z,78.65
2018-04-22T01:52:48.447Z,78.75
2018-04-22T01:53:48.345Z,79.03
2018-04-22T01:54:48.243Z,79.70
2018-04-22T01:55:48.152Z,79.13
2018-04-22T01:56:48.047Z,79.03
2018-04-22T01:57:47.944Z,79.03
2018-04-22T01:58:47.852Z,78.94
2018-04-22T01:59:47.749Z,79.13
2018-04-22T02:00:47.646Z,78.85
2018-04-22T02:01:47.856Z,79.13
2018-04-22T02:02:47.459Z,78.27
2018-04-22T02:03:47.362Z,78.03
2018-04-22T02:04:47.256Z,78.03
2018-04-22T02:05:47.153Z,77.74
2018-04-22T02:06:47.050Z,77.55
2018-04-22T02:07:46.959Z,76.69
2018-04-22T02:08:46.856Z,77.74
2018-04-22T02:09:46.752Z,77.36
2018-04-22T02:10:46.660Z,76.98
2018-04-22T02:11:46.559Z,77.17
2018-04-22T02:12:46.455Z,77.83
2018-04-22T02:13:46.365Z,77.93
2018-04-22T02:14:46.264Z,78.22
2018-04-22T02:15:46.161Z,77.93
2018-04-22T02:16:46.066Z,78.03
2018-04-22T02:17:45.975Z,77.83
2018-04-22T02:18:45.861Z,78.12
2018-04-22T02:19:45.769Z,78.17
2018-04-22T02:20:45.666Z,77.70
2018-04-22T02:21:45.813Z,78.46
2018-04-22T02:22:45.470Z,78.17
2018-04-22T02:23:45.367Z,78.46
2018-04-22T02:24:45.264Z,78.94
2018-04-22T02:25:45.174Z,78.85
2018-04-22T02:26:45.071Z,79.13
2018-04-22T02:27:45.004Z,78.94
2018-04-22T02:28:44.876Z,79.22
2018-04-22T02:29:44.772Z,79.03
2018-04-22T02:30:44.668Z,78.75
2018-04-22T02:31:44.583Z,78.65
2018-04-22T02:32:44.476Z,78.37
2018-04-22T02:33:44.372Z,77.93
2018-04-22T02:34:44.274Z,77.64
2018-04-22T02:35:44.178Z,77.98
2018-04-22T02:36:44.089Z,78.27
2018-04-22T02:37:43.969Z,77.93
2018-04-22T02:38:43.880Z,77.70
2018-04-22T02:39:43.777Z,78.27
2018-04-22T02:40:43.684Z,78.65
2018-04-22T02:41:43.581Z,78.27
2018-04-22T02:42:43.477Z,78.46
2018-04-22T02:43:43.374Z,78.56
2018-04-22T02:44:43.286Z,78.46
2018-04-22T02:45:43.181Z,78.85
2018-04-22T02:46:43.077Z,78.65
2018-04-22T02:47:42.986Z,78.65
2018-04-22T02:48:42.882Z,78.85
2018-04-22T02:49:42.779Z,78.46
2018-04-22T02:50:42.676Z,79.22
2018-04-22T02:51:42.586Z,78.85
2018-04-22T02:52:42.486Z,79.38
2018-04-22T02:53:42.379Z,79.09
2018-04-22T02:54:42.286Z,79.38
2018-04-22T02:55:42.183Z,79.47
2018-04-22T02:56:42.082Z,79.57
2018-04-22T02:57:41.990Z,79.57
2018-04-22T02:58:41.886Z,79.80
2018-04-22T02:59:41.783Z,79.66
2018-04-22T03:00:41.679Z,79.57
2018-04-22T03:01:41.838Z,79.75
2018-04-22T03:02:41.484Z,79.75
2018-04-22T03:03:41.381Z,79.89
2018-04-22T03:04:41.292Z,79.70
2018-04-22T03:05:41.190Z,79.60
2018-04-22T03:06:41.084Z,79.41
2018-04-22T03:07:40.994Z,79.41
2018-04-22T03:08:40.889Z,79.41
2018-04-22T03:09:40.786Z,79.41
2018-04-22T03:10:40.692Z,78.85
2018-04-22T03:11:40.596Z,79.22
2018-04-22T03:12:40.491Z,79.22
2018-04-22T03:13:40.386Z,79.22
2018-04-22T03:14:40.298Z,78.85
2018-04-22T03:15:40.190Z,78.94
2018-04-22T03:16:40.088Z,79.51
2018-04-22T03:17:39.997Z,79.22
2018-04-22T03:18:39.894Z,79.80
2018-04-22T03:19:39.793Z,79.47
2018-04-22T03:20:39.688Z,79.75
2018-04-22T03:21:39.895Z,79.66
2018-04-22T03:22:39.493Z,79.47
2018-04-22T03:23:39.401Z,79.75
2018-04-22T03:24:39.298Z,80.04
2018-04-22T03:25:39.196Z,80.23
2018-04-22T03:26:39.092Z,80.04
2018-04-22T03:27:38.992Z,79.94
2018-04-22T03:28:38.897Z,80.13
2018-04-22T03:29:38.794Z,79.94
2018-04-22T03:30:38.690Z,80.13
2018-04-22T03:31:38.601Z,79.66
2018-04-22T03:32:38.497Z,80.23
2018-04-22T03:33:38.395Z,80.71
2018-04-22T03:34:38.292Z,80.42
2018-04-22T03:35:38.204Z,80.42
2018-04-22T03:36:38.096Z,80.23
2018-04-22T03:37:37.993Z,80.23
2018-04-22T03:38:37.903Z,80.42
2018-04-22T03:39:37.800Z,80.42
2018-04-22T03:40:37.697Z,80.61
2018-04-22T03:41:37.605Z,80.71
2018-04-22T03:42:37.506Z,80.13
2018-04-22T03:43:37.402Z,80.71
2018-04-22T03:44:37.295Z,80.42
2018-04-22T03:45:37.205Z,80.71
2018-04-22T03:46:37.102Z,80.80
2018-04-22T03:47:37.003Z,80.95
2018-04-22T03:48:36.900Z,80.76
2018-04-22T03:49:36.805Z,80.95
2018-04-22T03:50:36.704Z,80.86
2018-04-22T03:51:36.903Z,80.66
2018-04-22T03:52:36.507Z,81.14
2018-04-22T03:53:36.404Z,80.76
2018-04-22T03:54:36.301Z,81.05
2018-04-22T03:55:36.198Z,81.43
2018-04-22T03:56:36.106Z,81.62
2018-04-22T03:57:36.003Z,81.33
2018-04-22T03:58:35.904Z,81.52
2018-04-22T03:59:35.798Z,81.33
2018-04-22T04:00:35.707Z,81.33
2018-04-22T04:01:35.852Z,81.47
2018-04-22T04:02:35.500Z,81.47
2018-04-22T04:03:35.399Z,81.18
2018-04-22T04:04:35.305Z,81.09
2018-04-22T04:05:35.202Z,80.90
2018-04-22T04:06:35.098Z,81.09
2018-04-22T04:07:35.009Z,80.90
2018-04-22T04:08:34.905Z,80.61
2018-04-22T04:09:34.809Z,80.52
2018-04-22T04:10:34.710Z,80.23
2018-04-22T04:11:34.607Z,80.23
2018-04-22T04:12:34.503Z,80.18
2018-04-22T04:13:34.400Z,80.18
2018-04-22T04:14:34.360Z,79.70
2018-04-22T04:15:34.206Z,79.70
2018-04-22T04:16:34.106Z,79.64
2018-04-22T04:17:34.013Z,78.78
2018-04-22T04:18:33.908Z,78.88
2018-04-22T04:19:33.805Z,78.44
2018-04-22T04:20:33.702Z,78.06
2018-04-22T04:21:33.610Z,77.30
2018-04-22T04:22:33.507Z,76.77
2018-04-22T04:23:33.404Z,77.34
2018-04-22T04:24:33.314Z,76.77
2018-04-22T04:25:33.210Z,77.15
2018-04-22T04:26:33.107Z,76.81
2018-04-22T04:27:33.017Z,76.23
2018-04-22T04:28:32.912Z,75.47
2018-04-22T04:29:32.810Z,76.23
2018-04-22T04:30:32.718Z,76.23
2018-04-22T04:31:32.615Z,75.51
2018-04-22T04:32:32.512Z,75.51
2018-04-22T04:33:32.422Z,75.60
2018-04-22T04:34:32.319Z,75.32
2018-04-22T04:35:32.227Z,74.21
2018-04-22T04:36:32.123Z,74.40
2018-04-22T04:37:32.024Z,74.78
2018-04-22T04:38:31.930Z,73.54
2018-04-22T04:39:31.834Z,73.63
2018-04-22T04:40:31.735Z,73.39
2018-04-22T04:41:31.635Z,72.91
2018-04-22T04:42:31.528Z,73.00
2018-04-22T04:43:31.488Z,71.89
2018-04-22T04:44:31.341Z,72.28
2018-04-22T04:45:31.243Z,72.08
2018-04-22T04:46:31.140Z,71.42
2018-04-22T04:47:31.050Z,71.42
2018-04-22T04:48:30.947Z,71.32
2018-04-22T04:49:30.855Z,71.13
2018-04-22T04:50:30.752Z,71.03
2018-04-22T04:51:30.962Z,71.07
2018-04-22T04:52:30.559Z,70.40
2018-04-22T04:53:30.482Z,69.92
2018-04-22T04:54:30.363Z,70.05
2018-04-22T04:55:30.275Z,69.29
2018-04-22T04:56:30.170Z,68.90
2018-04-22T04:57:30.079Z,68.62
2018-04-22T04:58:29.975Z,68.62
2018-04-22T04:59:29.885Z,68.55
2018-04-22T05:00:29.782Z,68.04
2018-04-22T05:01:29.691Z,68.07
2018-04-22T05:02:29.601Z,67.88
2018-04-22T05:03:29.497Z,67.85
2018-04-22T05:04:29.407Z,67.50
2018-04-22T05:05:29.301Z,68.04
2018-04-22T05:06:29.212Z,67.85
2018-04-22T05:07:29.119Z,67.47
2018-04-22T05:08:29.018Z,67.76
2018-04-22T05:09:28.932Z,67.60
2018-04-22T05:10:28.824Z,67.98
2018-04-22T05:11:28.733Z,67.98
2018-04-22T05:12:28.641Z,67.88
2018-04-22T05:13:28.540Z,67.60
2018-04-22T05:14:28.448Z,67.76
2018-04-22T05:15:28.363Z,67.37
2018-04-22T05:16:28.254Z,67.94
2018-04-22T05:17:28.162Z,67.69
2018-04-22T05:18:28.076Z,66.93
2018-04-22T05:19:27.968Z,66.74
2018-04-22T05:20:27.877Z,66.74
2018-04-22T05:21:27.775Z,66.25
2018-04-22T05:22:27.689Z,66.06
2018-04-22T05:23:27.592Z,66.83
2018-04-22T05:24:27.491Z,65.97
2018-04-22T05:25:27.399Z,66.06
2018-04-22T05:26:27.307Z,66.16
2018-04-22T05:27:27.217Z,66.06
2018-04-22T05:28:27.115Z,65.97
2018-04-22T05:29:27.022Z,65.42
2018-04-22T05:30:26.932Z,64.85
2018-04-22T05:31:26.830Z,64.12
2018-04-22T05:32:26.738Z,63.83
2018-04-22T05:33:26.650Z,63.00
2018-04-22T05:34:26.549Z,62.52
2018-04-22T05:35:26.453Z,61.37
2018-04-22T05:36:26.370Z,60.44
2018-04-22T05:37:26.271Z,59.86
2018-04-22T05:38:26.168Z,59.29
2018-04-22T05:39:26.081Z,59.09
2018-04-22T05:40:25.988Z,58.71
2018-04-22T05:41:26.146Z,58.94
2018-04-22T05:42:25.792Z,57.88
2018-04-22T05:43:25.702Z,57.40
2018-04-22T05:44:25.612Z,56.63
2018-04-22T05:45:25.519Z,56.95
2018-04-22T05:46:25.431Z,56.11
2018-04-22T05:47:25.326Z,54.74
2018-04-22T05:48:25.235Z,55.69
2018-04-22T05:49:25.147Z,54.86
2018-04-22T05:50:25.053Z,53.92
2018-04-22T05:51:24.963Z,53.52
2018-04-22T05:52:24.871Z,53.32
2018-04-22T05:53:24.782Z,53.58
2018-04-22T05:54:24.680Z,53.97
2018-04-22T05:55:24.588Z,54.06
2018-04-22T05:56:24.496Z,54.35
2018-04-22T05:57:24.405Z,54.55
2018-04-22T05:58:24.316Z,53.90
2018-04-22T05:59:24.236Z,53.32
2018-04-22T06:00:24.133Z,52.87
2018-04-22T06:01:24.062Z,52.10
2018-04-22T06:02:23.940Z,51.45
2018-04-22T06:03:23.848Z,51.48
2018-04-22T06:04:23.756Z,50.71
2018-04-22T06:05:23.667Z,50.25
2018-04-22T06:06:23.875Z,48.52
2018-04-22T06:07:23.486Z,48.52
2018-04-22T06:08:23.393Z,47.85
2018-04-22T06:09:23.304Z,48.03
2018-04-22T06:10:23.212Z,48.13
2018-04-22T06:11:23.121Z,48.33
2018-04-22T06:12:23.030Z,47.58
2018-04-22T06:13:22.941Z,46.91
2018-04-22T06:14:22.855Z,46.52
2018-04-22T06:15:22.759Z,45.84
2018-04-22T06:16:22.668Z,46.04
2018-04-22T06:17:22.581Z,47.56
2018-04-22T06:18:22.489Z,46.23
2018-04-22T06:19:22.401Z,46.15
2018-04-22T06:20:22.305Z,45.84
2018-04-22T06:21:22.227Z,46.14
2018-04-22T06:22:22.139Z,46.62
2018-04-22T06:23:22.044Z,46.55
2018-04-22T06:24:21.954Z,46.15
2018-04-22T06:25:21.862Z,46.25
2018-04-22T06:26:21.772Z,45.31
2018-04-22T06:27:21.681Z,44.81
2018-04-22T06:28:21.626Z,44.90
2018-04-22T06:29:21.499Z,44.71
2018-04-22T06:30:21.421Z,46.33
2018-04-22T06:31:21.320Z,46.06
2018-04-22T06:32:21.239Z,46.04
2018-04-22T06:33:21.149Z,46.21
2018-04-22T06:34:21.058Z,46.52
2018-04-22T06:35:20.966Z,46.40
2018-04-22T06:36:20.876Z,46.62
2018-04-22T06:37:20.786Z,46.06
2018-04-22T06:38:20.697Z,45.31
2018-04-22T06:39:20.616Z,44.83
2018-04-22T06:40:20.534Z,45.20
2018-04-22T06:41:20.434Z,45.41
2018-04-22T06:42:20.344Z,45.03
2018-04-22T06:43:20.254Z,45.03
2018-04-22T06:44:20.164Z,44.54
2018-04-22T06:45:20.085Z,44.56
2018-04-22T06:46:19.992Z,43.91
2018-04-22T06:47:19.903Z,43.24
2018-04-22T06:48:19.815Z,42.58
2018-04-22T06:49:19.720Z,41.83
2018-04-22T06:50:19.643Z,41.44
2018-04-22T06:51:19.801Z,41.15
2018-04-22T06:52:19.461Z,40.59
2018-04-22T06:53:19.426Z,39.45
2018-04-22T06:54:19.291Z,39.06
2018-04-22T06:55:19.201Z,38.50
2018-04-22T06:56:19.111Z,38.50
2018-04-22T06:57:19.019Z,38.97
2018-04-22T06:58:18.943Z,39.70
2018-04-22T06:59:18.850Z,40.09
2018-04-22T07:00:18.759Z,39.92
2018-04-22T07:01:18.981Z,40.09
2018-04-22T07:02:18.590Z,39.82
2018-04-22T07:03:18.514Z,39.72
2018-04-22T07:04:18.408Z,39.43
2018-04-22T07:05:18.330Z,39.34
2018-04-22T07:06:18.241Z,38.56
2018-04-22T07:07:18.150Z,38.97
2018-04-22T07:08:18.069Z,39.82
2018-04-22T07:09:17.982Z,39.53
2018-04-22T07:10:17.889Z,39.06
2018-04-22T07:11:17.810Z,38.79
2018-04-22T07:12:17.720Z,38.39
2018-04-22T07:13:17.641Z,38.37
2018-04-22T07:14:17.550Z,39.80
2018-04-22T07:15:17.460Z,39.99
2018-04-22T07:16:17.382Z,39.80
2018-04-22T07:17:17.290Z,39.62
2018-04-22T07:18:17.200Z,39.64
2018-04-22T07:19:17.121Z,38.60
2018-04-22T07:20:17.033Z,37.44
2018-04-22T07:21:17.190Z,36.78
2018-04-22T07:22:16.861Z,36.22
2018-04-22T07:23:16.770Z,36.60
2018-04-22T07:24:16.712Z,36.51
2018-04-22T07:25:16.601Z,36.51
2018-04-22T07:26:16.510Z,36.41
2018-04-22T07:27:16.420Z,36.58
2018-04-22T07:28:16.341Z,37.34
2018-04-22T07:29:16.271Z,38.21
2018-04-22T07:30:16.159Z,39.34
2018-04-22T07:31:16.069Z,40.47
2018-04-22T07:32:16.015Z,40.65
2018-04-22T07:33:15.900Z,41.61
2018-04-22T07:34:15.808Z,42.42
2018-04-22T07:35:15.746Z,44.04
2018-04-22T07:36:15.631Z,45.44
2018-04-22T07:37:15.551Z,46.77
2018-04-22T07:38:15.459Z,48.21
2018-04-22T07:39:15.367Z,49.72
2018-04-22T07:40:15.277Z,49.91
2018-04-22T07:41:15.185Z,49.31
2018-04-22T07:42:15.099Z,49.60
2018-04-22T07:43:15.003Z,50.08
2018-04-22T07:44:14.913Z,50.85
2018-04-22T07:45:14.823Z,52.17
2018-04-22T07:46:14.743Z,52.17
2018-04-22T07:47:14.655Z,52.94
2018-04-22T07:48:14.563Z,52.84
2018-04-22T07:49:14.471Z,53.90
2018-04-22T07:50:14.386Z,53.52
2018-04-22T07:51:14.290Z,53.03
2018-04-22T07:52:14.198Z,53.80
2018-04-22T07:53:14.108Z,54.09
2018-04-22T07:54:14.017Z,53.90
2018-04-22T07:55:13.929Z,54.09
2018-04-22T07:56:13.835Z,53.80
2018-04-22T07:57:13.745Z,53.80
2018-04-22T07:58:13.653Z,53.23
2018-04-22T07:59:13.563Z,53.03
2018-04-22T08:00:13.472Z,54.19
2018-04-22T08:01:13.369Z,55.24
2018-04-22T08:02:13.280Z,54.09
2018-04-22T08:03:13.187Z,55.05
2018-04-22T08:04:13.096Z,55.53
2018-04-22T08:05:13.006Z,55.05
2018-04-22T08:06:12.914Z,54.67
2018-04-22T08:07:12.823Z,53.61
2018-04-22T08:08:12.736Z,55.24
2018-04-22T08:09:12.644Z,55.15
2018-04-22T08:10:12.551Z,55.66
2018-04-22T08:11:12.461Z,57.26
2018-04-22T08:12:12.370Z,57.00
2018-04-22T08:13:12.279Z,55.18
2018-04-22T08:14:12.179Z,54.89
2018-04-22T08:15:12.090Z,54.99
2018-04-22T08:16:11.999Z,55.27
2018-04-22T08:17:11.907Z,54.19
2018-04-22T08:18:11.813Z,54.60
2018-04-22T08:19:11.722Z,55.66
2018-04-22T08:20:11.632Z,55.56
2018-04-22T08:21:11.844Z,55.37
2018-04-22T08:22:11.449Z,56.04
2018-04-22T08:23:11.348Z,56.43
2018-04-22T08:24:11.256Z,56.43
2018-04-22T08:25:11.164Z,55.08
2018-04-22T08:26:11.074Z,55.37
2018-04-22T08:27:10.982Z,55.46
2018-04-22T08:28:10.894Z,55.76
2018-04-22T08:29:10.817Z,54.50
2018-04-22T08:30:10.711Z,53.83
2018-04-22T08:31:10.620Z,54.31
2018-04-22T08:32:10.516Z,54.79
2018-04-22T08:33:10.426Z,54.41
2018-04-22T08:34:10.334Z,55.27
2018-04-22T08:35:10.248Z,55.27
2018-04-22T08:36:10.154Z,55.18
2018-04-22T08:37:10.063Z,54.79
2018-04-22T08:38:09.971Z,53.92
2018-04-22T08:39:09.881Z,54.82
2018-04-22T08:40:09.779Z,55.20
2018-04-22T08:41:09.686Z,53.76
2018-04-22T08:42:09.607Z,52.89
2018-04-22T08:43:09.505Z,52.42
2018-04-22T08:44:09.418Z,52.80
2018-04-22T08:45:09.323Z,53.66
2018-04-22T08:46:09.233Z,53.19
2018-04-22T08:47:09.145Z,51.93
2018-04-22T08:48:09.052Z,52.15
2018-04-22T08:49:08.948Z,52.06
2018-04-22T08:50:08.856Z,52.18
2018-04-22T08:51:08.766Z,52.47
2018-04-22T08:52:08.674Z,50.95
2018-04-22T08:53:08.586Z,49.73
2018-04-22T08:54:08.497Z,50.30
2018-04-22T08:55:08.403Z,51.29
2018-04-22T08:56:08.313Z,48.33
2018-04-22T08:57:08.210Z,46.11
2018-04-22T08:58:08.120Z,46.23
2018-04-22T08:59:08.028Z,44.90
2018-04-22T09:00:07.938Z,44.82
2018-04-22T09:01:07.845Z,44.75
2018-04-22T09:02:07.779Z,43.59
2018-04-22T09:03:07.664Z,43.23
2018-04-22T09:04:07.573Z,42.57
2018-04-22T09:05:07.482Z,41.04
2018-04-22T09:06:07.379Z,39.51
2018-04-22T09:07:07.288Z,38.76
2018-04-22T09:08:07.196Z,37.81
2018-04-22T09:09:07.107Z,37.65
2018-04-22T09:10:07.015Z,35.88
2018-04-22T09:11:06.927Z,35.49
2018-04-22T09:12:06.833Z,36.43
2018-04-22T09:13:06.750Z,37.79
2018-04-22T09:14:06.651Z,37.81
2018-04-22T09:15:06.571Z,36.08
2018-04-22T09:16:06.470Z,35.14
2018-04-22T09:17:06.382Z,37.08
2018-04-22T09:18:06.288Z,36.69
2018-04-22T09:19:06.198Z,36.08
2018-04-22T09:20:06.107Z,36.54
2018-04-22T09:21:06.016Z,38.06
2018-04-22T09:22:05.926Z,39.37
2018-04-22T09:23:05.835Z,41.17
2018-04-22T09:24:05.744Z,42.77
2018-04-22T09:25:05.653Z,44.51
2018-04-22T09:26:05.575Z,44.63
2018-04-22T09:27:05.496Z,43.40
2018-04-22T09:28:05.393Z,42.08
2018-04-22T09:29:05.301Z,40.86
2018-04-22T09:30:05.215Z,38.78
2018-04-22T09:31:05.122Z,36.56
2018-04-22T09:32:05.030Z,35.41
2018-04-22T09:33:04.987Z,35.14
2018-04-22T09:34:04.852Z,35.98
2018-04-22T09:35:04.771Z,36.08
2018-04-22T09:36:04.691Z,36.35
2018-04-22T09:37:04.594Z,37.13
2018-04-22T09:38:04.497Z,36.48
2018-04-22T09:39:04.418Z,36.68
2018-04-22T09:40:04.331Z,35.43
2018-04-22T09:41:04.236Z,35.25
2018-04-22T09:42:04.158Z,34.67
2018-04-22T09:43:04.123Z,33.34
2018-04-22T09:44:03.978Z,33.06
2018-04-22T09:45:03.898Z,32.20
2018-04-22T09:46:03.808Z,32.00
2018-04-22T09:47:03.730Z,32.21
2018-04-22T09:48:03.638Z,31.93
2018-04-22T09:49:03.560Z,31.45
2018-04-22T09:50:03.483Z,32.23
2018-04-22T09:51:03.392Z,32.34
2018-04-22T09:52:03.314Z,30.58
2018-04-22T09:53:03.223Z,30.38
2018-04-22T09:54:03.143Z,30.98
2018-04-22T09:55:03.065Z,29.32
2018-04-22T09:56:02.987Z,30.10
2018-04-22T09:57:02.897Z,29.52
2018-04-22T09:58:02.818Z,29.13
2018-04-22T09:59:02.740Z,28.26
2018-04-22T10:00:02.663Z,28.34
2018-04-22T10:01:02.571Z,29.61
2018-04-22T10:02:02.493Z,29.79
2018-04-22T10:03:02.416Z,30.38
2018-04-22T10:04:02.337Z,30.07
2018-04-22T10:05:02.257Z,31.06
2018-04-22T10:06:02.183Z,30.58
2018-04-22T10:07:02.098Z,29.24
2018-04-22T10:08:02.010Z,29.15
2018-04-22T10:09:01.934Z,28.96
2018-04-22T10:10:01.854Z,28.68
2018-04-22T10:11:01.777Z,29.17
2018-04-22T10:12:01.697Z,28.96
2018-04-22T10:13:01.618Z,28.55
2018-04-22T10:14:01.540Z,29.82
2018-04-22T10:15:01.462Z,28.94
2018-04-22T10:16:01.384Z,29.03
2018-04-22T10:17:01.306Z,29.69
2018-04-22T10:18:01.229Z,29.03
2018-04-22T10:19:01.149Z,28.45
2018-04-22T10:20:01.072Z,28.09
2018-04-22T10:21:00.992Z,28.40
2018-04-22T10:22:00.913Z,26.93
2018-04-22T10:23:00.837Z,26.95
2018-04-22T10:24:00.761Z,28.03
2018-04-22T10:25:00.679Z,27.93
2018-04-22T10:26:00.602Z,27.26
2018-04-22T10:27:00.522Z,27.36
2018-04-22T10:28:00.444Z,27.36
2018-04-22T10:29:00.366Z,25.99
2018-04-22T10:30:00.307Z,25.99
2018-04-22T10:31:00.221Z,24.73
2018-04-22T10:32:00.143Z,24.33
2018-04-22T10:33:00.065Z,24.35
2018-04-22T10:33:59.986Z,24.44
2018-04-22T10:34:59.908Z,24.75
2018-04-22T10:35:59.843Z,24.75
2018-04-22T10:36:59.765Z,24.36
2018-04-22T10:37:59.689Z,24.74
2018-04-22T10:38:59.607Z,25.90
2018-04-22T10:39:59.536Z,27.16
2018-04-22T10:40:59.462Z,26.27
2018-04-22T10:41:59.439Z,27.91
2018-04-22T10:42:59.306Z,27.23
2018-04-22T10:43:59.228Z,27.02
2018-04-22T10:44:59.163Z,26.07
2018-04-22T10:45:59.090Z,26.18
2018-04-22T10:46:59.011Z,26.18
2018-04-22T10:47:58.927Z,25.50
2018-04-22T10:48:58.850Z,25.90
2018-04-22T10:49:58.771Z,27.12
2018-04-22T10:50:58.708Z,28.16
2018-04-22T10:51:58.631Z,28.16
2018-04-22T10:52:58.567Z,30.43
2018-04-22T10:53:58.469Z,31.11
2018-04-22T10:54:58.391Z,31.58
2018-04-22T10:55:58.313Z,32.17
2018-04-22T10:56:58.235Z,32.45
2018-04-22T10:57:58.208Z,31.85
2018-04-22T10:58:58.077Z,31.94
2018-04-22T10:59:57.988Z,31.76
2018-04-22T11:00:57.909Z,33.59
2018-04-22T11:01:57.837Z,33.31
2018-04-22T11:02:57.752Z,32.34
2018-04-22T11:03:57.674Z,32.64
2018-04-22T11:04:57.596Z,32.17
2018-04-22T11:05:57.518Z,31.88
2018-04-22T11:06:57.427Z,31.88
2018-04-22T11:07:57.354Z,31.79
2018-04-22T11:08:57.269Z,31.88
2018-04-22T11:09:57.191Z,30.80
2018-04-22T11:10:57.114Z,31.08
2018-04-22T11:11:57.023Z,31.18
2018-04-22T11:12:56.949Z,32.70
2018-04-22T11:13:56.866Z,34.06
2018-04-22T11:14:56.775Z,33.56
2018-04-22T11:15:56.696Z,33.34
2018-04-22T11:16:56.619Z,33.81
2018-04-22T11:17:56.529Z,33.42
2018-04-22T11:18:56.449Z,34.86
2018-04-22T11:19:56.359Z,35.15
2018-04-22T11:20:56.293Z,35.72
2018-04-22T11:21:56.201Z,36.60
2018-04-22T11:22:56.111Z,38.45
2018-04-22T11:23:56.033Z,39.03
2018-04-22T11:24:55.942Z,38.06
2018-04-22T11:25:55.863Z,37.46
2018-04-22T11:26:55.773Z,38.12
2018-04-22T11:27:55.683Z,37.73
2018-04-22T11:28:55.607Z,38.20
2018-04-22T11:29:55.513Z,38.48
2018-04-22T11:30:55.435Z,38.58
2018-04-22T11:31:55.343Z,37.81
2018-04-22T11:32:55.273Z,37.42
2018-04-22T11:33:55.177Z,37.81
2018-04-22T11:34:55.083Z,38.48
2018-04-22T11:35:55.005Z,39.55
2018-04-22T11:36:54.917Z,39.36
2018-04-22T11:37:54.824Z,38.97
2018-04-22T11:38:54.748Z,39.45
2018-04-22T11:39:54.655Z,38.39
2018-04-22T11:40:54.815Z,38.48
2018-04-22T11:41:54.485Z,38.39
2018-04-22T11:42:54.420Z,38.78
2018-04-22T11:43:54.303Z,38.97
2018-04-22T11:44:54.226Z,38.95
2018-04-22T11:45:54.135Z,39.14
2018-04-22T11:46:54.043Z,40.20
2018-04-22T11:47:53.954Z,41.66
2018-04-22T11:48:53.876Z,42.16
2018-04-22T11:49:53.786Z,40.20
2018-04-22T11:50:53.694Z,40.50
2018-04-22T11:51:53.604Z,40.78
2018-04-22T11:52:53.523Z,41.46
2018-04-22T11:53:53.434Z,41.17
2018-04-22T11:54:53.346Z,41.17
2018-04-22T11:55:53.252Z,39.62
2018-04-22T11:56:53.174Z,39.72
2018-04-22T11:57:53.083Z,41.08
2018-04-22T11:58:52.996Z,39.61
2018-04-22T11:59:52.949Z,39.62
2018-04-22T12:00:52.811Z,39.82
2018-04-22T12:01:52.733Z,42.04
2018-04-22T12:02:52.640Z,41.75
2018-04-22T12:03:52.551Z,41.08
2018-04-22T12:04:52.459Z,41.17
2018-04-22T12:05:52.378Z,41.66
2018-04-22T12:06:52.291Z,40.61
2018-04-22T12:07:52.199Z,39.74
2018-04-22T12:08:52.109Z,40.13
2018-04-22T12:09:52.017Z,40.90
2018-04-22T12:10:51.927Z,39.95
2018-04-22T12:11:51.837Z,39.55
2018-04-22T12:12:51.757Z,39.37
2018-04-22T12:13:51.667Z,39.57
2018-04-22T12:14:51.576Z,41.02
2018-04-22T12:15:51.736Z,40.05
2018-04-22T12:16:51.395Z,40.92
2018-04-22T12:17:51.316Z,40.15
2018-04-22T12:18:51.226Z,39.67
2018-04-22T12:19:51.134Z,38.79
2018-04-22T12:20:51.045Z,38.79
2018-04-22T12:21:50.955Z,37.92
2018-04-22T12:22:50.875Z,37.82
2018-04-22T12:23:50.785Z,38.50
2018-04-22T12:24:50.693Z,40.15
2018-04-22T12:25:50.602Z,40.73
2018-04-22T12:26:50.511Z,41.21
2018-04-22T12:27:50.422Z,41.02
2018-04-22T12:28:50.343Z,41.31
2018-04-22T12:29:50.255Z,40.83
2018-04-22T12:30:50.163Z,40.05
2018-04-22T12:31:50.089Z,39.86
2018-04-22T12:32:49.980Z,40.53
2018-04-22T12:33:49.890Z,41.21
2018-04-22T12:34:49.810Z,41.41
2018-04-22T12:35:49.720Z,43.41
2018-04-22T12:36:49.628Z,41.67
2018-04-22T12:37:49.570Z,41.02
2018-04-22T12:38:49.447Z,41.29
2018-04-22T12:39:49.368Z,41.29
2018-04-22T12:40:49.282Z,40.71
2018-04-22T12:41:49.186Z,41.31
2018-04-22T12:42:49.101Z,40.63
2018-04-22T12:43:49.005Z,41.60
2018-04-22T12:44:48.915Z,39.67
2018-04-22T12:45:48.836Z,39.86
2018-04-22T12:46:48.744Z,38.58
2018-04-22T12:47:48.676Z,39.45
2018-04-22T12:48:48.563Z,39.62
2018-04-22T12:49:48.477Z,40.20
2018-04-22T12:50:48.395Z,41.27
2018-04-22T12:51:48.303Z,41.87